createdAt,value
2022-10-04T00:02:31.893Z,101300.94
2022-10-04T00:05:05.228Z,101297.16
2022-10-04T00:07:41.006Z,101295.47
2022-10-04T00:10:21.076Z,101304.97
2022-10-04T00:12:52.452Z,101300.16
2022-10-04T00:15:25.141Z,101307.28
2022-10-04T00:18:10.800Z,101310.94
2022-10-04T00:20:50.721Z,101314.34
2022-10-04T00:23:24.212Z,101312.63
2022-10-04T00:26:01.373Z,101310.09
2022-10-04T00:28:37.750Z,101317.75
2022-10-04T00:31:08.153Z,101308.91
2022-10-04T00:33:51.385Z,101290.69
2022-10-04T00:36:24.952Z,101312.00
2022-10-04T00:39:07.407Z,101305.63
2022-10-04T00:41:46.764Z,101301.09
2022-10-04T00:44:47.138Z,101295.16
2022-10-04T00:47:41.253Z,101302.25
2022-10-04T00:50:18.782Z,101299.50
2022-10-04T00:52:53.552Z,101301.00
2022-10-04T00:55:34.570Z,101308.66
2022-10-04T00:58:06.906Z,101310.31
2022-10-04T01:00:36.390Z,101307.94
2022-10-04T01:03:20.168Z,101308.47
2022-10-04T01:05:54.590Z,101305.63
2022-10-04T01:08:48.214Z,101319.25
2022-10-04T01:11:21.354Z,101307.41
2022-10-04T01:13:55.380Z,101298.81
2022-10-04T01:16:33.700Z,101299.63
2022-10-04T01:19:22.634Z,101306.88
2022-10-04T01:22:05.152Z,101307.88
2022-10-04T01:24:37.860Z,101294.41
2022-10-04T01:27:27.537Z,101287.63
2022-10-04T01:29:55.102Z,101294.28
2022-10-04T01:32:23.226Z,101282.53
2022-10-04T01:34:50.756Z,101291.34
2022-10-04T01:37:18.797Z,101287.25
2022-10-04T01:39:46.893Z,101283.63
2022-10-04T01:42:30.184Z,101298.06
2022-10-04T01:45:24.675Z,101282.66
2022-10-04T01:48:15.938Z,101285.13
2022-10-04T01:50:59.712Z,101283.47
2022-10-04T01:53:34.980Z,101276.66
2022-10-04T01:56:13.403Z,101276.50
2022-10-04T01:58:45.496Z,101272.75
2022-10-04T02:01:24.194Z,101273.59
2022-10-04T02:04:19.875Z,101264.66
2022-10-04T02:06:56.339Z,101265.53
2022-10-04T02:09:30.545Z,101270.09
2022-10-04T02:11:59.736Z,101262.84
2022-10-04T02:14:39.252Z,101267.38
2022-10-04T02:17:10.810Z,101263.69
2022-10-04T02:19:41.643Z,101268.28
2022-10-04T02:22:11.006Z,101261.81
2022-10-04T02:24:43.011Z,101271.47
2022-10-04T02:27:10.996Z,101269.63
2022-10-04T02:29:38.796Z,101264.56
2022-10-04T02:32:27.162Z,101264.00
2022-10-04T02:34:56.517Z,101264.91
2022-10-04T02:37:26.760Z,101258.72
2022-10-04T02:39:58.154Z,101249.91
2022-10-04T02:42:45.274Z,101258.41
2022-10-04T02:45:33.482Z,101262.34
2022-10-04T02:48:22.639Z,101261.69
2022-10-04T02:50:53.870Z,101265.75
2022-10-04T02:53:42.247Z,101262.75
2022-10-04T02:56:12.252Z,101260.38
2022-10-04T02:58:41.302Z,101260.88
2022-10-04T03:01:18.013Z,101261.88
2022-10-04T03:03:47.773Z,101270.19
2022-10-04T03:06:19.366Z,101265.97
2022-10-04T03:08:50.187Z,101265.56
2022-10-04T03:11:22.718Z,101264.72
2022-10-04T03:13:53.816Z,101276.91
2022-10-04T03:16:21.889Z,101265.06
2022-10-04T03:18:51.567Z,101280.31
2022-10-04T03:21:21.868Z,101269.47
2022-10-04T03:23:52.232Z,101279.75
2022-10-04T03:26:43.581Z,101286.94
2022-10-04T03:29:14.091Z,101292.72
2022-10-04T03:31:50.096Z,101283.34
2022-10-04T03:34:24.875Z,101290.69
2022-10-04T03:36:56.333Z,101286.19
2022-10-04T03:39:43.104Z,101292.81
2022-10-04T03:42:34.760Z,101288.47
2022-10-04T03:45:07.253Z,101294.94
2022-10-04T03:47:41.141Z,101288.75
2022-10-04T03:50:26.972Z,101303.00
2022-10-04T03:52:58.898Z,101300.78
2022-10-04T03:55:34.089Z,101295.78
2022-10-04T03:58:02.657Z,101293.44
2022-10-04T04:00:30.399Z,101293.09
2022-10-04T04:03:05.915Z,101302.03
2022-10-04T04:05:37.302Z,101302.16
2022-10-04T04:08:18.006Z,101299.47
2022-10-04T04:10:53.263Z,101302.84
2022-10-04T04:13:35.699Z,101308.22
2022-10-04T04:16:05.634Z,101296.91
2022-10-04T04:18:38.736Z,101304.91
2022-10-04T04:21:08.169Z,101289.53
2022-10-04T04:23:43.290Z,101297.53
2022-10-04T04:26:31.464Z,101306.13
2022-10-04T04:29:04.730Z,101308.41
2022-10-04T04:31:38.002Z,101310.16
2022-10-04T04:34:18.902Z,101310.31
2022-10-04T04:36:46.699Z,101309.50
2022-10-04T04:39:39.919Z,101311.16
2022-10-04T04:42:10.543Z,101322.22
2022-10-04T04:44:46.047Z,101320.22
2022-10-04T04:47:27.300Z,101316.06
2022-10-04T04:50:03.744Z,101320.31
2022-10-04T04:52:32.747Z,101325.72
2022-10-04T04:55:01.007Z,101330.91
2022-10-04T04:57:28.766Z,101330.63
2022-10-04T04:59:59.592Z,101328.56
2022-10-04T05:02:37.783Z,101324.03
2022-10-04T05:05:32.775Z,101335.31
2022-10-04T05:08:27.939Z,101336.84
2022-10-04T05:10:58.305Z,101350.06
2022-10-04T05:13:40.138Z,101344.56
2022-10-04T05:16:39.713Z,101355.97
2022-10-04T05:19:14.116Z,101352.63
2022-10-04T05:21:46.919Z,101350.44
2022-10-04T05:24:33.287Z,101346.50
2022-10-04T05:27:07.850Z,101343.06
2022-10-04T05:29:39.330Z,101345.13
2022-10-04T05:32:29.737Z,101358.72
2022-10-04T05:34:57.936Z,101368.97
2022-10-04T05:37:30.657Z,101361.03
2022-10-04T05:40:15.984Z,101355.47
2022-10-04T05:42:45.975Z,101355.50
2022-10-04T05:45:23.493Z,101364.72
2022-10-04T05:47:53.715Z,101361.97
2022-10-04T05:50:30.091Z,101359.56
2022-10-04T05:53:33.093Z,101373.09
2022-10-04T05:56:06.484Z,101375.34
2022-10-04T05:58:42.781Z,101366.63
2022-10-04T06:01:20.684Z,101371.66
2022-10-04T06:04:04.787Z,101378.28
2022-10-04T06:06:48.717Z,101381.13
2022-10-04T06:09:34.888Z,101373.22
2022-10-04T06:12:13.404Z,101373.66
2022-10-04T06:14:56.513Z,101385.09
2022-10-04T06:17:26.749Z,101384.38
2022-10-04T06:20:13.681Z,101385.50
2022-10-04T06:22:54.809Z,101380.81
2022-10-04T06:25:29.264Z,101383.94
2022-10-04T06:28:21.050Z,101381.47
2022-10-04T06:31:09.619Z,101390.59
2022-10-04T06:33:59.176Z,101404.88
2022-10-04T06:36:33.017Z,101408.97
2022-10-04T06:39:32.988Z,101413.91
2022-10-04T06:42:12.837Z,101421.91
2022-10-04T06:45:01.815Z,101423.75
2022-10-04T06:47:48.146Z,101423.34
2022-10-04T06:50:28.658Z,101422.53
2022-10-04T06:53:10.887Z,101438.31
2022-10-04T06:55:41.119Z,101435.09
2022-10-04T06:58:11.483Z,101434.34
2022-10-04T07:00:52.768Z,101433.69
2022-10-04T07:03:32.244Z,101433.56
2022-10-04T07:06:05.166Z,101446.75
2022-10-04T07:08:50.114Z,101452.25
2022-10-04T07:11:30.334Z,101447.38
2022-10-04T07:14:05.990Z,101445.00
2022-10-04T07:16:49.250Z,101448.75
2022-10-04T07:19:39.090Z,101446.66
2022-10-04T07:22:06.554Z,101456.88
2022-10-04T07:25:11.757Z,101464.94
2022-10-04T07:27:42.159Z,101463.53
2022-10-04T07:30:20.802Z,101465.72
2022-10-04T07:32:53.008Z,101464.72
2022-10-04T07:35:33.927Z,101459.94
2022-10-04T07:38:17.642Z,101468.44
2022-10-04T07:41:49.643Z,101482.16
2022-10-04T07:44:42.434Z,101472.03
2022-10-04T07:47:21.725Z,101464.13
2022-10-04T07:49:54.069Z,101479.75
2022-10-04T07:52:46.060Z,101475.94
2022-10-04T07:55:45.448Z,101471.03
2022-10-04T07:58:27.054Z,101478.69
2022-10-04T08:01:33.298Z,101483.13
2022-10-04T08:04:20.153Z,101476.03
2022-10-04T08:07:15.410Z,101486.66
2022-10-04T08:10:34.615Z,101487.34
2022-10-04T08:13:26.415Z,101493.81
2022-10-04T08:15:59.482Z,101493.09
2022-10-04T08:18:46.262Z,101500.81
2022-10-04T08:22:03.061Z,101493.44
2022-10-04T08:24:59.219Z,101495.06
2022-10-04T08:27:39.762Z,101491.31
2022-10-04T08:30:25.727Z,101496.06
2022-10-04T08:33:02.033Z,101493.66
2022-10-04T08:35:36.469Z,101495.97
2022-10-04T08:38:42.434Z,101497.06
2022-10-04T08:41:30.914Z,101505.06
2022-10-04T08:44:17.014Z,101506.38
2022-10-04T08:47:27.062Z,101510.81
2022-10-04T08:50:06.245Z,101502.00
2022-10-04T08:53:11.355Z,101517.09
2022-10-04T08:56:17.631Z,101524.94
2022-10-04T08:58:56.739Z,101515.75
2022-10-04T09:01:56.713Z,101506.91
2022-10-04T09:04:51.231Z,101511.84
2022-10-04T09:08:04.424Z,101496.34
2022-10-04T09:10:59.554Z,101508.63
2022-10-04T09:13:45.177Z,101497.38
2022-10-04T09:16:24.844Z,101487.41
2022-10-04T09:19:21.945Z,101505.91
2022-10-04T09:22:25.400Z,101494.44
2022-10-04T09:25:23.388Z,101507.66
2022-10-04T09:28:09.978Z,101507.28
2022-10-04T09:30:58.545Z,101505.06
2022-10-04T09:33:48.087Z,101502.47
2022-10-04T09:36:34.225Z,101512.94
2022-10-04T09:39:30.011Z,101499.53
2022-10-04T09:42:19.334Z,101507.69
2022-10-04T09:45:13.512Z,101494.72
2022-10-04T09:47:45.830Z,101512.69
2022-10-04T09:50:35.692Z,101511.28
2022-10-04T09:53:20.435Z,101489.19
2022-10-04T09:56:27.084Z,101516.00
2022-10-04T09:59:13.721Z,101514.38
2022-10-04T10:02:13.024Z,101512.28
2022-10-04T10:04:52.899Z,101509.19
2022-10-04T10:07:32.315Z,101505.16
2022-10-04T10:10:36.720Z,101505.09
2022-10-04T10:13:43.011Z,101506.44
2022-10-04T10:16:25.821Z,101513.50
2022-10-04T10:19:13.086Z,101509.97
2022-10-04T10:21:43.978Z,101503.19
2022-10-04T10:24:37.983Z,101510.53
2022-10-04T10:27:25.148Z,101515.81
2022-10-04T10:30:11.030Z,101504.88
2022-10-04T10:32:47.080Z,101510.31
2022-10-04T10:35:32.900Z,101509.13
2022-10-04T10:38:04.796Z,101511.53
2022-10-04T10:40:41.828Z,101507.47
2022-10-04T10:43:51.191Z,101509.59
2022-10-04T10:46:43.027Z,101502.00
2022-10-04T10:49:10.600Z,101511.94
2022-10-04T10:51:55.880Z,101502.22
2022-10-04T10:54:45.955Z,101509.53
2022-10-04T10:57:48.286Z,101492.78
2022-10-04T11:00:21.013Z,101500.19
2022-10-04T11:03:14.591Z,101501.28
2022-10-04T11:06:01.646Z,101504.28
2022-10-04T11:08:58.680Z,101501.66
2022-10-04T11:11:31.911Z,101494.97
2022-10-04T11:14:33.176Z,101499.72
2022-10-04T11:17:13.652Z,101490.97
2022-10-04T11:19:55.875Z,101502.75
2022-10-04T11:23:00.585Z,101502.34
2022-10-04T11:25:45.899Z,101503.53
2022-10-04T11:28:47.613Z,101498.84
2022-10-04T11:31:32.697Z,101499.53
2022-10-04T11:34:16.572Z,101501.75
2022-10-04T11:36:56.345Z,101512.56
2022-10-04T11:39:42.551Z,101506.66
2022-10-04T11:42:30.466Z,101502.38
2022-10-04T11:45:17.408Z,101500.56
2022-10-04T11:47:44.742Z,101509.25
2022-10-04T11:50:38.992Z,101497.94
2022-10-04T11:53:52.951Z,101505.16
2022-10-04T11:56:34.182Z,101492.66
2022-10-04T11:59:21.033Z,101495.44
2022-10-04T12:02:27.760Z,101491.53
2022-10-04T12:05:24.896Z,101496.50
2022-10-04T12:08:29.642Z,101490.84
2022-10-04T12:11:21.917Z,101494.69
2022-10-04T12:13:51.995Z,101490.91
2022-10-04T12:16:45.672Z,101493.97
2022-10-04T12:19:32.581Z,101497.91
2022-10-04T12:22:02.746Z,101493.50
2022-10-04T12:24:57.881Z,101489.66
2022-10-04T12:27:39.133Z,101499.28
2022-10-04T12:30:28.444Z,101491.56
2022-10-04T12:33:11.330Z,101481.28
2022-10-04T12:35:44.312Z,101487.03
2022-10-04T12:38:27.736Z,101480.34
2022-10-04T12:41:32.671Z,101486.94
2022-10-04T12:44:18.518Z,101484.41
2022-10-04T12:47:36.961Z,101469.66
2022-10-04T12:50:30.344Z,101464.84
2022-10-04T12:53:05.311Z,101473.94
2022-10-04T12:55:38.485Z,101474.28
2022-10-04T12:58:21.776Z,101472.91
2022-10-04T13:00:53.345Z,101472.69
2022-10-04T13:03:23.466Z,101470.28
2022-10-04T13:06:02.918Z,101476.59
2022-10-04T13:08:51.857Z,101479.66
2022-10-04T13:11:43.783Z,101459.84
2022-10-04T13:14:36.000Z,101467.75
2022-10-04T13:17:35.899Z,101461.16
2022-10-04T13:20:45.502Z,101462.09
2022-10-04T13:23:47.817Z,101462.50
2022-10-04T13:26:33.229Z,101459.81
2022-10-04T13:29:07.421Z,101460.31
2022-10-04T13:31:47.339Z,101454.38
2022-10-04T13:34:36.550Z,101450.94
2022-10-04T13:37:07.202Z,101450.81
2022-10-04T13:39:46.631Z,101457.25
2022-10-04T13:42:29.252Z,101447.94
2022-10-04T13:45:21.573Z,101443.09
2022-10-04T13:48:26.468Z,101448.84
2022-10-04T13:51:02.366Z,101446.81
2022-10-04T13:53:59.626Z,101444.53
2022-10-04T13:57:04.540Z,101443.25
2022-10-04T13:59:41.982Z,101426.84
2022-10-04T14:02:46.340Z,101436.72
2022-10-04T14:05:35.311Z,101433.69
2022-10-04T14:08:14.939Z,101436.63
2022-10-04T14:11:09.020Z,101436.41
2022-10-04T14:13:43.104Z,101432.03
2022-10-04T14:17:03.495Z,101437.81
2022-10-04T14:19:50.172Z,101439.59
2022-10-04T14:22:54.532Z,101441.53
2022-10-04T14:25:34.031Z,101441.44
2022-10-04T14:28:33.448Z,101442.38
2022-10-04T14:31:01.923Z,101441.28
2022-10-04T14:33:54.740Z,101443.16
2022-10-04T14:37:03.719Z,101442.69
2022-10-04T14:39:36.873Z,101444.25
2022-10-04T14:42:33.418Z,101439.00
2022-10-04T14:45:16.411Z,101432.50
2022-10-04T14:48:08.067Z,101445.50
2022-10-04T14:50:48.459Z,101441.44
2022-10-04T14:53:22.131Z,101439.34
2022-10-04T14:56:09.291Z,101448.09
2022-10-04T14:58:58.142Z,101437.44
2022-10-04T15:01:27.872Z,101437.16
2022-10-04T15:03:58.182Z,101442.56
2022-10-04T15:06:49.188Z,101440.75
2022-10-04T15:09:38.236Z,101432.97
2022-10-04T15:12:58.453Z,101432.28
2022-10-04T15:15:32.559Z,101432.31
2022-10-04T15:18:22.129Z,101420.66
2022-10-04T15:20:52.594Z,101433.22
2022-10-04T15:23:58.520Z,101434.44
2022-10-04T15:26:32.294Z,101435.16
2022-10-04T15:29:23.911Z,101436.84
2022-10-04T15:32:21.885Z,101441.38
2022-10-04T15:35:01.879Z,101440.56
2022-10-04T15:37:29.551Z,101434.13
2022-10-04T15:40:21.017Z,101440.06
2022-10-04T15:43:18.055Z,101436.28
2022-10-04T15:46:09.565Z,101439.56
2022-10-04T15:48:51.963Z,101445.06
2022-10-04T15:51:42.673Z,101449.97
2022-10-04T15:55:02.528Z,101451.22
2022-10-04T15:57:49.613Z,101460.63
2022-10-04T16:00:27.511Z,101464.81
2022-10-04T16:03:09.281Z,101457.53
2022-10-04T16:05:44.112Z,101460.78
2022-10-04T16:08:11.506Z,101462.59
2022-10-04T16:11:17.005Z,101470.13
2022-10-04T16:14:00.317Z,101461.03
2022-10-04T16:16:48.515Z,101468.03
2022-10-04T16:19:36.377Z,101476.34
2022-10-04T16:22:15.848Z,101471.44
2022-10-04T16:24:48.926Z,101469.81
2022-10-04T16:27:37.747Z,101480.25
2022-10-04T16:30:27.422Z,101477.75
2022-10-04T16:32:58.446Z,101479.41
2022-10-04T16:35:34.810Z,101477.59
2022-10-04T16:38:17.059Z,101486.56
2022-10-04T16:41:07.572Z,101500.72
2022-10-04T16:43:39.619Z,101497.06
2022-10-04T16:46:17.741Z,101498.88
2022-10-04T16:48:58.910Z,101501.56
2022-10-04T16:52:02.937Z,101509.72
2022-10-04T16:54:45.476Z,101511.47
2022-10-04T16:57:18.132Z,101523.66
2022-10-04T16:59:49.717Z,101522.13
2022-10-04T17:02:43.663Z,101522.06
2022-10-04T17:05:33.074Z,101524.94
2022-10-04T17:08:15.333Z,101531.59
2022-10-04T17:10:48.717Z,101533.53
2022-10-04T17:13:43.747Z,101534.38
2022-10-04T17:16:30.082Z,101546.16
2022-10-04T17:19:18.271Z,101543.75
2022-10-04T17:22:20.370Z,101552.94
2022-10-04T17:25:12.781Z,101556.38
2022-10-04T17:27:56.405Z,101553.44
2022-10-04T17:30:30.570Z,101556.41
2022-10-04T17:33:24.123Z,101563.22
2022-10-04T17:35:58.391Z,101564.47
2022-10-04T17:38:50.690Z,101574.94
2022-10-04T17:41:37.381Z,101574.19
2022-10-04T17:44:24.262Z,101582.44
2022-10-04T17:47:14.874Z,101578.88
2022-10-04T17:50:20.977Z,101585.34
2022-10-04T17:53:13.784Z,101581.63
2022-10-04T17:55:48.122Z,101595.53
2022-10-04T17:58:20.278Z,101588.16
2022-10-04T18:00:53.503Z,101594.59
2022-10-04T18:03:31.678Z,101613.53
2022-10-04T18:06:05.237Z,101605.97
2022-10-04T18:08:46.615Z,101601.38
2022-10-04T18:11:17.387Z,101607.78
2022-10-04T18:13:57.545Z,101604.44
2022-10-04T18:16:32.472Z,101615.97
2022-10-04T18:19:30.626Z,101615.22
2022-10-04T18:22:11.498Z,101622.56
2022-10-04T18:24:38.883Z,101620.16
2022-10-04T18:27:23.926Z,101628.72
2022-10-04T18:30:18.765Z,101622.31
2022-10-04T18:32:48.865Z,101617.19
2022-10-04T18:35:25.157Z,101619.13
2022-10-04T18:37:58.144Z,101618.91
2022-10-04T18:40:34.649Z,101627.31
2022-10-04T18:43:02.176Z,101629.13
2022-10-04T18:45:34.336Z,101637.47
2022-10-04T18:48:16.089Z,101630.28
2022-10-04T18:50:45.750Z,101638.34
2022-10-04T18:53:46.023Z,101637.06
2022-10-04T18:56:13.993Z,101636.09
2022-10-04T18:59:18.677Z,101647.19
2022-10-04T19:02:04.209Z,101650.75
2022-10-04T19:05:06.834Z,101653.75
2022-10-04T19:07:51.417Z,101650.84
2022-10-04T19:10:33.288Z,101650.50
2022-10-04T19:13:10.933Z,101659.38
2022-10-04T19:15:38.890Z,101662.38
2022-10-04T19:18:24.476Z,101668.50
2022-10-04T19:21:07.308Z,101663.31
2022-10-04T19:24:00.209Z,101663.25
2022-10-04T19:26:37.493Z,101667.53
2022-10-04T19:29:23.698Z,101673.50
2022-10-04T19:32:02.465Z,101674.03
2022-10-04T19:34:39.076Z,101679.09
2022-10-04T19:37:13.943Z,101669.91
2022-10-04T19:40:30.378Z,101684.03
2022-10-04T19:43:20.808Z,101684.81
2022-10-04T19:46:08.455Z,101687.28
2022-10-04T19:48:46.414Z,101682.03
2022-10-04T19:51:28.273Z,101691.56
2022-10-04T19:54:16.305Z,101687.78
2022-10-04T19:56:51.229Z,101675.94
2022-10-04T19:59:32.596Z,101683.06
2022-10-04T20:03:30.107Z,101680.94
2022-10-04T20:12:45.170Z,101706.53
2022-10-04T20:24:08.684Z,101704.00
2022-10-04T20:27:01.612Z,101705.44
2022-10-04T20:29:38.078Z,101715.09
2022-10-04T20:32:37.543Z,101718.63
2022-10-04T20:35:15.121Z,101724.22
2022-10-04T20:38:27.315Z,101735.59
2022-10-04T20:41:11.423Z,101718.22
2022-10-04T20:44:04.054Z,101725.00
2022-10-04T20:46:39.674Z,101726.50
2022-10-04T20:49:17.149Z,101741.22
2022-10-04T20:51:51.047Z,101731.09
2022-10-04T20:54:20.358Z,101739.13
2022-10-04T20:56:50.412Z,101752.91
2022-10-04T20:59:18.905Z,101744.63
2022-10-04T21:02:02.527Z,101759.16
2022-10-04T21:04:41.571Z,101752.28
2022-10-04T21:07:15.372Z,101749.22
2022-10-04T21:09:43.272Z,101747.25
2022-10-04T21:12:35.583Z,101757.94
2022-10-04T21:15:27.643Z,101756.47
2022-10-04T21:18:09.778Z,101757.59
2022-10-04T21:20:51.004Z,101747.72
2022-10-04T21:23:30.450Z,101752.72
2022-10-04T21:26:38.738Z,101759.13
2022-10-04T21:29:06.301Z,101759.13
2022-10-04T21:31:34.152Z,101770.69
2022-10-04T21:34:02.044Z,101771.84
2022-10-04T21:36:37.433Z,101767.88
2022-10-04T21:39:15.140Z,101773.69
2022-10-04T21:41:50.122Z,101772.81
2022-10-04T21:44:24.284Z,101775.28
2022-10-04T21:47:09.004Z,101770.97
2022-10-04T21:49:50.840Z,101785.84
2022-10-04T21:52:19.100Z,101796.16
2022-10-04T21:54:46.940Z,101796.94
2022-10-04T21:57:46.682Z,101804.75
2022-10-04T22:00:14.361Z,101804.81
2022-10-04T22:02:41.908Z,101815.16
2022-10-04T22:05:09.784Z,101812.91
2022-10-04T22:07:37.559Z,101814.53
2022-10-04T22:10:05.692Z,101819.06
2022-10-04T22:12:33.261Z,101811.53
2022-10-04T22:15:00.948Z,101808.84
2022-10-04T22:17:28.347Z,101812.47
2022-10-04T22:19:55.828Z,101812.94
2022-10-04T22:22:23.343Z,101806.44
2022-10-04T22:24:50.813Z,101808.97
2022-10-04T22:27:20.666Z,101806.00
2022-10-04T22:29:49.022Z,101796.97
2022-10-04T22:32:27.964Z,101799.78
2022-10-04T22:35:12.279Z,101804.69
2022-10-04T22:37:39.935Z,101803.03
2022-10-04T22:40:14.515Z,101813.97
2022-10-04T22:42:42.766Z,101814.78
2022-10-04T22:45:20.881Z,101815.25
2022-10-04T22:47:48.857Z,101821.25
2022-10-04T22:50:33.850Z,101812.50
2022-10-04T22:53:12.838Z,101824.59
2022-10-04T22:55:41.486Z,101808.03
2022-10-04T22:58:14.346Z,101798.84
2022-10-04T23:00:43.179Z,101793.16
2022-10-04T23:03:31.410Z,101805.13
2022-10-04T23:06:00.817Z,101801.25
2022-10-04T23:08:29.411Z,101794.28
2022-10-04T23:10:59.473Z,101798.47
2022-10-04T23:13:27.587Z,101793.47
2022-10-04T23:16:00.345Z,101793.47
2022-10-04T23:18:30.417Z,101800.75
2022-10-04T23:21:01.785Z,101801.38
2022-10-04T23:23:31.053Z,101798.88
2022-10-04T23:25:58.712Z,101802.09
2022-10-04T23:28:26.431Z,101804.19
2022-10-04T23:31:10.911Z,101805.63
2022-10-04T23:33:38.532Z,101810.09
2022-10-04T23:36:11.843Z,101810.47
2022-10-04T23:38:39.713Z,101809.25
2022-10-04T23:41:12.148Z,101814.44
2022-10-04T23:43:39.727Z,101803.63
2022-10-04T23:46:14.985Z,101803.53
2022-10-04T23:48:42.937Z,101811.97
2022-10-04T23:51:13.389Z,101811.03
2022-10-04T23:53:42.517Z,101804.34
2022-10-04T23:56:21.619Z,101817.84
2022-10-04T23:58:51.173Z,101814.72
